Address 0xa6a688f107851131f0e1dce493ebbebfaf99203e 7

 

Overview

Hop Protocol: USDC Bonder
Balance:
5.002030390185992599 ETH

ETH Value:
$8,373.95 (@ $1,674.11/ETH)
Txn Hash Method
Block
From
To
Value [Txn Fee]
0x45e126b28db013e1145fd37c1588e4db24388e5a83415fa213e8c23214463bc5Redeem590414142023-02-08 8:04:114 mins agoHop Protocol: USDC BonderOUT Arbitrum: ArbRetryableTx0 ETH0.00127844
0xf9de3ebc4b3f299396c6c95f7db5927e77d96fba880bec9d13485f5721c58d44Bond Withdrawal ...590407432023-02-08 8:01:277 mins agoHop Protocol: USDC BonderOUT Hop Protocol: USDC Bridge0 ETH0.00149491
0x42c24f3a82de348dd79bb42eac9c33d95d15bb2e44d5cf316b581d25f5aa9600Redeem590398812023-02-08 7:57:4310 mins agoHop Protocol: USDC BonderOUT Arbitrum: ArbRetryableTx0 ETH0.00128013
0x8b5bdfd77bdb238d9aad2c874a2d5df7d1a6951c490c881771ac140558634be3Redeem590383322023-02-08 7:51:0717 mins agoHop Protocol: USDC BonderOUT Arbitrum: ArbRetryableTx0 ETH0.00127131
0x4d7940b2639124fddf14f784bd231b5acfd735370eccba2dbfb4d3206e129096Bond Withdrawal ...590382772023-02-08 7:50:5817 mins agoHop Protocol: USDC BonderOUT Hop Protocol: USDT Bridge0 ETH0.00162721
0x1b1a6fe19a7949b73fa85575263fc85870a7c37cbaab67021a28204ec7b21f4aBond Withdrawal ...590370172023-02-08 7:45:2923 mins agoHop Protocol: USDC BonderOUT Hop Protocol: USDC Bridge0 ETH0.00162967
0xc112f2689d926746cd1a6b867f2bf35eabd4df5be58884e07a52e6c199d39377Bond Withdrawal ...590365632023-02-08 7:43:4324 mins agoHop Protocol: USDC BonderOUT Hop Protocol: USDC Bridge0 ETH0.00161842
0x949873f67eafe3c74908b0b042852f7b19975ae47c4200e11cae9febd3262555Bond Withdrawal ...590364582023-02-08 7:43:1625 mins agoHop Protocol: USDC BonderOUT Hop Protocol: USDC Bridge0 ETH0.00161845
0x0d45e3838abc132a93b52fb8f8a7b9ea4207525ee1c7dccb9b3d5d1864eae431Bond Withdrawal ...590359332023-02-08 7:40:5627 mins agoHop Protocol: USDC BonderOUT Hop Protocol: USDT Bridge0 ETH0.00159404
0x2ebaafe7b71150e32149851a96ef2e107298d3850db319d3c57b2fc4773ee5d8Bond Withdrawal ...590333592023-02-08 7:29:4238 mins agoHop Protocol: USDC BonderOUT Hop Protocol: USDT Bridge0 ETH0.00162612
0xb6e978bc866b0b382e33a6ee8a99dcfb51084be3287a106e4be1f33361a1d0b6Bond Withdrawal ...590273332023-02-08 7:03:241 hr 5 mins agoHop Protocol: USDC BonderOUT Hop Protocol: USDC Bridge0 ETH0.00161354
0xea7fab9928b611c980e87e741a4c1c403de804014b6098d39542f53bc61aa31eRedeem590250622023-02-08 6:53:331 hr 15 mins agoHop Protocol: USDC BonderOUT Arbitrum: ArbRetryableTx0 ETH0.00127263
0xce1d96861a572a52cce14c7c26279cfd9dcef31b6ce31529fdf4873b6a0f9187Bond Withdrawal ...590238882023-02-08 6:48:181 hr 20 mins agoHop Protocol: USDC BonderOUT Hop Protocol: USDT Bridge0 ETH0.00161876
0x2c9d5421dcfd2080bd7bbdb9e28c7ac7c2ea9ad320bae511db69d03ba76a0cf4Bond Withdrawal ...590230092023-02-08 6:44:291 hr 24 mins agoHop Protocol: USDC BonderOUT Hop Protocol: USDC Bridge0 ETH0.00157551
0x52507149dea6d0713a74930aba611d166327ba5d4acaaeb5be566649fd4d3015Redeem590223152023-02-08 6:41:191 hr 27 mins agoHop Protocol: USDC BonderOUT Arbitrum: ArbRetryableTx0 ETH0.00129563
0x7ff30d45e142ba392c523eaf54bebe6922cb78061bf90949a8267e35bf4cf423Bond Withdrawal ...590212202023-02-08 6:36:281 hr 32 mins agoHop Protocol: USDC BonderOUT Hop Protocol: USDC Bridge0 ETH0.00162939
0xb89b5d3f1e18d9b5aa8290e3d4f1c49f22fefcc1552983ea7080d3e7a1a3e31fBond Withdrawal ...590209802023-02-08 6:35:241 hr 33 mins agoHop Protocol: USDC BonderOUT Hop Protocol: USDC Bridge0 ETH0.00160748
0x791602000add02bc863ea4d3720e5c53eff350a3e997908a527540008760c069Bond Withdrawal ...590197662023-02-08 6:30:001 hr 38 mins agoHop Protocol: USDC BonderOUT Hop Protocol: USDC Bridge0 ETH0.0015188
0x9919abcf90f43d499bda0443cb5d20007c9f97e8144e7704de2329e1569df80cRedeem590180212023-02-08 6:22:061 hr 46 mins agoHop Protocol: USDC BonderOUT Arbitrum: ArbRetryableTx0 ETH0.00122352
0x02f3aece3077e434d7a9948145c1ad50f6b3597d012034f3a2290f3ba31dc03bBond Withdrawal ...590139582023-02-08 6:04:062 hrs 4 mins agoHop Protocol: USDC BonderOUT Hop Protocol: USDC Bridge0 ETH0.00155206
0x2f560763a613b6abeca4b8203603cb6c2d53d4389620ebbf567b2d0497b814a1Bond Withdrawal ...590103472023-02-08 5:47:442 hrs 20 mins agoHop Protocol: USDC BonderOUT Hop Protocol: USDC Bridge0 ETH0.00169322
0x4169061e941300a7b1a560c88ec496c34efaa25dd557efdb5ef46207f719aaf9Bond Withdrawal ...590059552023-02-08 5:27:302 hrs 41 mins agoHop Protocol: USDC BonderOUT Hop Protocol: USDC Bridge0 ETH0.00165682
0x069c3f7e1a2f9303b23caa82717bd4a7ff8d32016425c08109887e90b9145180Bond Withdrawal ...590057952023-02-08 5:26:472 hrs 41 mins agoHop Protocol: USDC BonderOUT Hop Protocol: USDC Bridge0 ETH0.00167867
0x5a57a7cb7a871fef8222cfc2fd31987b65f691474126713b782363bc933cb7e4Redeem590053342023-02-08 5:24:342 hrs 44 mins agoHop Protocol: USDC BonderOUT Arbitrum: ArbRetryableTx0 ETH0.00135967
0xa940f98d3c838c384fce9984ba8fe669bab428049a4fcfc59630e23a7cf491c2Bond Withdrawal ...590040602023-02-08 5:18:232 hrs 50 mins agoHop Protocol: USDC BonderOUT Hop Protocol: USDC Bridge0 ETH0.00163827
[ Download CSV Export 
Latest 6 internal transactions
Parent Txn Hash Block From To Value
0xd4b900e1467359fdb7b1e9b4ef53be562c431e81099a16bbd9ef570ad57f8ef2225682712022-09-03 0:21:30158 days 7 hrs ago 0xc4d28710fe030a75a3a981a1abac0db984e52964Hop Protocol: USDC Bonder0 ETH
0xd4b900e1467359fdb7b1e9b4ef53be562c431e81099a16bbd9ef570ad57f8ef2225682712022-09-03 0:21:30158 days 7 hrs ago 0xc4d28710fe030a75a3a981a1abac0db984e52964Hop Protocol: USDC Bonder0 ETH
0xfeaef1108f23aada461e779d8498622d3d269e9506660efb2ea38bfaa6c97a08173877332022-07-10 19:55:29212 days 12 hrs ago Hop Protocol: ETH WrapperHop Protocol: USDC Bonder14.98966261306130338 ETH
0x210b3e7123adc3fc68cc6bcdc583f8677efc4e5bd46f729bce924ef45d9cb828109373882022-04-30 22:02:39283 days 10 hrs ago Hop Protocol: ETH WrapperHop Protocol: USDC Bonder10.001971292130626741 ETH
0x9042753387cbeac9460950a52eb3a56ce19e302da339260aa10947d25bc5e65747367642022-01-17 17:47:16386 days 14 hrs ago Hop Protocol: ETH WrapperHop Protocol: USDC Bonder5.000799351933630411 ETH
0x619a85f0cbdd3e0bef19e383fae5cf80217333cdfceb51210f378372d4321e0a35181192021-12-02 18:06:53432 days 14 hrs ago Hop Protocol: ETH WrapperHop Protocol: USDC Bonder6.001610312890142237 ETH
[ Download CSV Export 
Loading

Contract Name:
0 ETH

Compiler Version
0

Optimization Enabled:
0 ETH

Other Settings:
-NA-
Block Transaction Gas Used Reward
Age Block Fee Address BC Fee Address Voting Power Jailed Incoming
Block Uncle Number Difficulty Gas Used Reward
Loading
Make sure to use the "Vote Down" button for any spammy posts, and the "Vote Up" for interesting conversations.